createdAt,value
2022-10-19T00:01:03.667Z,9.00
2022-10-19T00:03:33.450Z,5.60
2022-10-19T00:06:01.683Z,6.40
2022-10-19T00:08:29.489Z,5.93
2022-10-19T00:10:57.201Z,6.27
2022-10-19T00:13:24.987Z,6.43
2022-10-19T00:15:52.714Z,3.27
2022-10-19T00:18:20.500Z,9.57
2022-10-19T00:20:49.545Z,8.87
2022-10-19T00:23:17.185Z,4.83
2022-10-19T00:25:55.161Z,3.97
2022-10-19T00:28:22.939Z,9.20
2022-10-19T00:30:50.705Z,7.30
2022-10-19T00:33:22.477Z,9.37
2022-10-19T00:35:53.232Z,7.50
2022-10-19T00:38:22.154Z,7.60
2022-10-19T00:40:50.578Z,6.90
2022-10-19T00:43:20.733Z,9.80
2022-10-19T00:45:49.100Z,4.97
2022-10-19T00:48:20.701Z,5.03
2022-10-19T00:50:50.311Z,8.53
2022-10-19T00:53:19.659Z,8.17
2022-10-19T00:55:47.656Z,7.50
2022-10-19T00:58:15.626Z,7.57
2022-10-19T01:00:43.438Z,7.73
2022-10-19T01:03:13.244Z,8.77
2022-10-19T01:05:42.330Z,4.90
2022-10-19T01:08:11.086Z,6.50
2022-10-19T01:10:47.661Z,8.53
2022-10-19T01:13:32.566Z,7.77
2022-10-19T01:16:06.377Z,6.47
2022-10-19T01:18:40.752Z,9.70
2022-10-19T01:21:21.656Z,6.80
2022-10-19T01:24:27.391Z,7.20
2022-10-19T01:27:28.718Z,4.77
2022-10-19T01:30:07.281Z,9.10
2022-10-19T01:32:45.335Z,7.30
2022-10-19T01:35:22.770Z,3.77
2022-10-19T01:37:56.480Z,4.07
2022-10-19T01:40:31.907Z,7.77
2022-10-19T01:43:03.792Z,6.57
2022-10-19T01:45:40.587Z,7.20
2022-10-19T01:48:15.195Z,5.87
2022-10-19T01:50:48.904Z,9.43
2022-10-19T01:53:19.034Z,7.30
2022-10-19T01:55:51.089Z,5.53
2022-10-19T01:58:29.099Z,6.40
2022-10-19T02:01:02.577Z,8.13
2022-10-19T02:03:30.728Z,9.47
2022-10-19T02:05:59.519Z,8.37
2022-10-19T02:08:31.372Z,4.10
2022-10-19T02:11:00.293Z,9.07
2022-10-19T02:13:30.297Z,4.93
2022-10-19T02:16:02.461Z,6.90
2022-10-19T02:18:33.968Z,8.23
2022-10-19T02:21:02.922Z,6.43
2022-10-19T02:23:31.028Z,7.67
2022-10-19T02:25:59.741Z,13.27
2022-10-19T02:28:29.143Z,9.10
2022-10-19T02:30:57.399Z,4.97
2022-10-19T02:33:26.861Z,4.90
2022-10-19T02:35:54.773Z,9.43
2022-10-19T02:38:24.651Z,8.57
2022-10-19T02:41:01.023Z,8.67
2022-10-19T02:43:32.869Z,6.17
2022-10-19T02:46:06.780Z,8.70
2022-10-19T02:48:38.980Z,7.00
2022-10-19T02:51:06.992Z,4.60
2022-10-19T02:53:34.650Z,7.43
2022-10-19T02:56:02.300Z,7.83
2022-10-19T02:58:29.972Z,7.97
2022-10-19T03:00:57.853Z,8.23
2022-10-19T03:03:25.812Z,8.97
2022-10-19T03:05:56.536Z,6.80
2022-10-19T03:08:24.248Z,7.77
2022-10-19T03:10:51.962Z,12.50
2022-10-19T03:13:19.636Z,5.13
2022-10-19T03:15:47.512Z,6.00
2022-10-19T03:18:15.199Z,4.63
2022-10-19T03:20:42.921Z,9.33
2022-10-19T03:23:11.976Z,6.90
2022-10-19T03:25:39.714Z,10.13
2022-10-19T03:28:07.466Z,6.00
2022-10-19T03:30:35.125Z,7.83
2022-10-19T03:33:02.812Z,9.80
2022-10-19T03:35:30.468Z,5.37
2022-10-19T03:37:58.198Z,7.10
2022-10-19T03:40:27.439Z,6.80
2022-10-19T03:42:55.223Z,8.37
2022-10-19T03:45:22.898Z,12.87
2022-10-19T03:47:50.756Z,6.17
2022-10-19T03:50:19.051Z,10.17
2022-10-19T03:52:46.692Z,9.67
2022-10-19T03:55:14.366Z,9.07
2022-10-19T03:57:44.079Z,6.87
2022-10-19T04:00:13.341Z,7.13
2022-10-19T04:02:41.011Z,11.07
2022-10-19T04:05:09.417Z,8.40
2022-10-19T04:07:37.169Z,4.47
2022-10-19T04:10:05.361Z,5.50
2022-10-19T04:12:33.043Z,4.70
2022-10-19T04:15:02.097Z,6.93
2022-10-19T04:17:29.777Z,5.27
2022-10-19T04:19:57.444Z,6.10
2022-10-19T04:22:25.090Z,6.03
2022-10-19T04:24:52.712Z,6.97
2022-10-19T04:27:20.413Z,2.47
2022-10-19T04:29:48.073Z,5.13
2022-10-19T04:32:17.176Z,7.57
2022-10-19T04:34:44.909Z,6.97
2022-10-19T04:37:12.516Z,8.10
2022-10-19T04:39:43.068Z,7.83
2022-10-19T04:42:10.764Z,8.17
2022-10-19T04:44:38.897Z,6.80
2022-10-19T04:47:06.712Z,6.73
2022-10-19T04:49:35.747Z,4.10
2022-10-19T04:52:03.441Z,7.77
2022-10-19T04:54:31.136Z,8.60
2022-10-19T04:56:58.851Z,7.30
2022-10-19T04:59:26.563Z,5.20
2022-10-19T05:01:54.274Z,5.33
2022-10-19T05:04:21.996Z,5.70
2022-10-19T05:06:51.015Z,3.63
2022-10-19T05:09:18.710Z,4.30
2022-10-19T05:11:46.450Z,10.20
2022-10-19T05:14:14.611Z,4.93
2022-10-19T05:16:42.336Z,4.03
2022-10-19T05:19:14.674Z,5.67
2022-10-19T05:21:42.337Z,4.90
2022-10-19T05:24:14.262Z,5.97
2022-10-19T05:26:41.995Z,8.60
2022-10-19T05:29:12.777Z,4.67
2022-10-19T05:31:41.063Z,11.63
2022-10-19T05:34:08.924Z,5.47
2022-10-19T05:36:38.879Z,4.10
2022-10-19T05:39:09.077Z,5.17
2022-10-19T05:41:38.349Z,11.37
2022-10-19T05:44:06.903Z,6.37
2022-10-19T05:46:35.356Z,5.97
2022-10-19T05:49:03.107Z,7.10
2022-10-19T05:51:30.918Z,5.93
2022-10-19T05:53:58.723Z,6.67
2022-10-19T05:56:28.036Z,15.00
2022-10-19T05:58:58.599Z,5.57
2022-10-19T06:01:27.836Z,7.40
2022-10-19T06:03:57.523Z,6.40
2022-10-19T06:06:26.303Z,7.90
2022-10-19T06:08:55.321Z,7.73
2022-10-19T06:11:24.981Z,5.53
2022-10-19T06:13:55.409Z,5.20
2022-10-19T06:16:25.594Z,8.00
2022-10-19T06:18:54.525Z,3.60
2022-10-19T06:21:23.687Z,5.03
2022-10-19T06:23:51.922Z,6.33
2022-10-19T06:26:20.788Z,12.33
2022-10-19T06:28:49.478Z,9.57
2022-10-19T06:31:18.078Z,9.90
2022-10-19T06:33:49.446Z,6.30
2022-10-19T06:36:19.959Z,4.43
2022-10-19T06:38:48.199Z,11.50
2022-10-19T06:41:16.418Z,4.97
2022-10-19T06:43:44.670Z,10.17
2022-10-19T06:46:17.566Z,6.13
2022-10-19T06:48:45.700Z,5.03
2022-10-19T06:51:14.924Z,6.57
2022-10-19T06:53:44.187Z,4.30
2022-10-19T06:56:12.094Z,12.70
2022-10-19T06:58:40.352Z,12.47
2022-10-19T07:01:09.437Z,8.80
2022-10-19T07:03:37.879Z,7.87
2022-10-19T07:06:08.190Z,10.97
2022-10-19T07:08:38.798Z,7.77
2022-10-19T07:11:08.884Z,8.30
2022-10-19T07:13:36.907Z,8.30
2022-10-19T07:16:07.596Z,6.33
2022-10-19T07:18:36.908Z,5.97
2022-10-19T07:21:07.609Z,9.00
2022-10-19T07:23:38.718Z,6.67
2022-10-19T07:26:07.765Z,6.47
2022-10-19T07:28:35.518Z,7.07
2022-10-19T07:31:07.990Z,7.33
2022-10-19T07:33:36.117Z,9.30
2022-10-19T07:36:05.905Z,10.90
2022-10-19T07:38:34.429Z,10.47
2022-10-19T07:41:05.689Z,7.33
2022-10-19T07:43:33.876Z,8.70
2022-10-19T07:46:03.297Z,7.80
2022-10-19T07:48:31.066Z,7.50
2022-10-19T07:50:59.043Z,9.77
2022-10-19T07:53:26.772Z,7.53
2022-10-19T07:55:54.505Z,5.75
2022-10-19T07:58:23.663Z,6.03
2022-10-19T08:00:51.444Z,10.60
2022-10-19T08:04:13.730Z,4.93
2022-10-19T08:06:08.526Z,7.50
2022-10-19T08:08:37.445Z,7.45
2022-10-19T08:11:08.191Z,7.95
2022-10-19T08:13:37.441Z,10.45
2022-10-19T08:16:06.199Z,9.55
2022-10-19T08:18:33.948Z,8.57
2022-10-19T08:21:03.546Z,9.82
2022-10-19T08:23:31.309Z,9.05
2022-10-19T08:25:59.342Z,9.45
2022-10-19T08:28:27.092Z,8.10
2022-10-19T08:30:58.906Z,8.55
2022-10-19T08:33:27.852Z,6.75
2022-10-19T08:35:55.635Z,6.68
2022-10-19T08:38:23.385Z,8.48
2022-10-19T08:40:51.139Z,5.95
2022-10-19T08:43:29.670Z,8.50
2022-10-19T08:46:12.664Z,6.07
2022-10-19T08:48:43.066Z,5.05
2022-10-19T08:51:14.162Z,9.13
2022-10-19T08:53:51.426Z,9.18
2022-10-19T08:59:27.114Z,6.53
2022-10-19T09:01:59.922Z,6.30
2022-10-19T09:04:31.773Z,4.70
2022-10-19T09:07:13.969Z,6.53
2022-10-19T09:12:25.801Z,3.73
2022-10-19T09:14:59.307Z,4.63
2022-10-19T09:17:29.854Z,4.37
2022-10-19T09:19:57.938Z,6.47
2022-10-19T09:22:30.533Z,7.77
2022-10-19T09:25:04.049Z,7.50
2022-10-19T09:27:39.867Z,7.43
2022-10-19T09:30:16.611Z,10.10
2022-10-19T09:32:45.860Z,6.40
2022-10-19T09:35:25.295Z,5.37
2022-10-19T09:37:53.475Z,8.90
2022-10-19T09:40:24.796Z,7.53
2022-10-19T09:42:57.189Z,7.40
2022-10-19T09:45:35.502Z,6.60
2022-10-19T09:48:15.127Z,3.73
2022-10-19T09:50:44.808Z,5.70
2022-10-19T09:53:20.455Z,7.37
2022-10-19T09:55:52.472Z,4.20
2022-10-19T09:58:21.339Z,5.07
2022-10-19T10:00:51.539Z,9.27
2022-10-19T10:03:29.634Z,5.70
2022-10-19T10:05:59.604Z,7.03
2022-10-19T10:08:31.126Z,8.17
2022-10-19T10:11:07.794Z,6.03
2022-10-19T10:13:38.936Z,6.73
2022-10-19T10:16:09.708Z,6.93
2022-10-19T10:18:46.536Z,7.90
2022-10-19T10:21:25.307Z,6.10
2022-10-19T10:24:02.465Z,9.47
2022-10-19T10:26:30.698Z,5.97
2022-10-19T10:29:01.324Z,4.17
2022-10-19T10:31:31.163Z,4.13
2022-10-19T10:34:11.020Z,5.00
2022-10-19T10:36:52.391Z,5.83
2022-10-19T10:39:20.261Z,5.73
2022-10-19T10:41:49.758Z,7.27
2022-10-19T10:44:21.490Z,6.70
2022-10-19T10:46:54.895Z,6.57
2022-10-19T10:49:27.818Z,7.03
2022-10-19T10:51:57.751Z,5.20
2022-10-19T10:54:28.124Z,8.23
2022-10-19T10:57:06.716Z,5.33
2022-10-19T10:59:44.632Z,6.87
2022-10-19T11:02:24.078Z,4.60
2022-10-19T11:04:58.620Z,4.73
2022-10-19T11:07:28.935Z,7.40
2022-10-19T11:09:59.603Z,5.27
2022-10-19T11:12:35.561Z,5.07
2022-10-19T11:15:13.111Z,6.07
2022-10-19T11:17:50.952Z,7.53
2022-10-19T11:20:20.458Z,9.63
2022-10-19T11:22:53.951Z,6.10
2022-10-19T11:25:31.113Z,7.20
2022-10-19T11:28:15.262Z,12.83
2022-10-19T11:30:55.193Z,7.10
2022-10-19T11:33:39.047Z,5.93
2022-10-19T11:36:19.074Z,5.33
2022-10-19T11:38:59.797Z,6.73
2022-10-19T11:41:33.198Z,7.10
2022-10-19T11:44:13.776Z,4.37
2022-10-19T11:46:49.847Z,7.10
2022-10-19T11:49:30.879Z,8.33
2022-10-19T11:52:07.084Z,6.87
2022-10-19T11:54:46.056Z,8.67
2022-10-19T11:57:20.426Z,7.20
2022-10-19T12:00:13.907Z,5.87
2022-10-19T12:02:59.334Z,4.73
2022-10-19T12:05:34.350Z,9.80
2022-10-19T12:08:21.162Z,9.40
2022-10-19T12:11:00.099Z,3.73
2022-10-19T12:13:32.809Z,6.10
2022-10-19T12:16:01.451Z,3.90
2022-10-19T12:18:36.423Z,6.77
2022-10-19T12:21:09.807Z,4.17
2022-10-19T12:23:40.975Z,6.00
2022-10-19T12:26:11.781Z,7.07
2022-10-19T12:28:43.394Z,5.50
2022-10-19T12:31:12.043Z,13.80
2022-10-19T12:33:47.320Z,4.67
2022-10-19T12:36:27.508Z,5.97
2022-10-19T12:39:03.956Z,5.30
2022-10-19T12:41:45.333Z,4.67
2022-10-19T12:44:27.467Z,6.87
2022-10-19T12:47:01.072Z,7.00
2022-10-19T12:49:48.832Z,5.07
2022-10-19T12:52:33.865Z,6.50
2022-10-19T12:55:24.581Z,6.13
2022-10-19T12:58:01.377Z,5.97
2022-10-19T13:00:31.947Z,7.73
2022-10-19T13:03:03.190Z,6.50
2022-10-19T13:05:32.706Z,10.70
2022-10-19T13:08:03.477Z,3.17
2022-10-19T13:10:33.605Z,6.30
2022-10-19T13:13:03.022Z,5.80
2022-10-19T13:15:52.353Z,4.07
2022-10-19T13:19:08.318Z,6.97
2022-10-19T13:21:48.148Z,5.23
2022-10-19T13:24:37.832Z,5.57
2022-10-19T13:27:39.381Z,3.27
2022-10-19T13:30:47.493Z,3.73
2022-10-19T13:33:45.194Z,4.03
2022-10-19T13:36:13.965Z,3.67
2022-10-19T13:38:44.287Z,8.23
2022-10-19T13:41:21.574Z,3.77
2022-10-19T13:43:59.090Z,3.33
2022-10-19T13:46:43.835Z,4.20
2022-10-19T13:49:48.740Z,4.93
2022-10-19T13:52:54.806Z,2.93
2022-10-19T13:55:47.244Z,6.25
2022-10-19T13:58:47.778Z,5.97
2022-10-19T14:01:28.019Z,3.33
2022-10-19T14:04:13.322Z,4.97
2022-10-19T14:06:47.071Z,6.90
2022-10-19T14:09:31.128Z,6.03
2022-10-19T14:12:07.260Z,5.30
2022-10-19T14:17:20.267Z,4.13
2022-10-19T14:19:52.358Z,4.17
2022-10-19T14:22:25.803Z,5.50
2022-10-19T14:25:00.589Z,2.97
2022-10-19T14:27:28.434Z,3.23
2022-10-19T14:29:56.259Z,3.57
2022-10-19T14:32:26.976Z,3.70
2022-10-19T14:35:02.127Z,5.03
2022-10-19T14:37:29.905Z,4.67
2022-10-19T14:40:07.378Z,4.50
2022-10-19T14:42:43.835Z,9.23
2022-10-19T14:45:15.552Z,5.03
2022-10-19T14:47:57.268Z,4.40
2022-10-19T14:50:35.150Z,2.80
2022-10-19T14:53:11.109Z,4.60
2022-10-19T14:55:42.336Z,6.90
2022-10-19T14:58:16.980Z,8.30
2022-10-19T15:00:48.634Z,6.10
2022-10-19T15:03:23.604Z,3.80
2022-10-19T15:05:57.365Z,3.80
2022-10-19T15:08:33.821Z,2.60
2022-10-19T15:11:01.957Z,2.83
2022-10-19T15:13:34.556Z,3.00
2022-10-19T15:16:02.296Z,2.70
2022-10-19T15:18:48.890Z,3.80
2022-10-19T15:21:21.074Z,3.27
2022-10-19T15:23:50.551Z,2.60
2022-10-19T15:26:21.515Z,3.33
2022-10-19T15:28:50.270Z,2.87
2022-10-19T15:31:20.405Z,5.17
2022-10-19T15:33:51.422Z,7.57
2022-10-19T15:36:22.260Z,12.43
2022-10-19T15:39:11.495Z,5.50
2022-10-19T15:41:47.944Z,19.90
2022-10-19T15:44:33.086Z,7.73
2022-10-19T15:47:24.247Z,2.20
2022-10-19T15:49:58.245Z,3.77
2022-10-19T15:52:30.418Z,7.63
2022-10-19T15:54:59.874Z,2.77
2022-10-19T15:57:31.388Z,5.57
2022-10-19T16:00:01.449Z,4.13
2022-10-19T16:02:29.354Z,3.33
2022-10-19T16:04:57.212Z,6.47
2022-10-19T16:07:29.620Z,6.00
2022-10-19T16:09:57.916Z,4.20
2022-10-19T16:12:27.146Z,5.10
2022-10-19T16:14:55.368Z,5.37
2022-10-19T16:17:23.590Z,3.27
2022-10-19T16:19:51.427Z,4.47
2022-10-19T16:22:19.247Z,3.47
2022-10-19T16:24:48.600Z,4.53
2022-10-19T16:27:17.042Z,4.57
2022-10-19T16:29:45.457Z,3.77
2022-10-19T16:32:13.129Z,5.47
2022-10-19T16:34:41.322Z,7.97
2022-10-19T16:37:09.117Z,4.70
2022-10-19T16:39:36.907Z,6.63
2022-10-19T16:42:06.217Z,4.73
2022-10-19T16:44:34.177Z,7.83
2022-10-19T16:47:02.056Z,9.27
2022-10-19T16:49:30.067Z,5.57
2022-10-19T16:51:57.912Z,5.43
2022-10-19T16:54:26.949Z,3.23
2022-10-19T16:56:55.832Z,4.20
2022-10-19T16:59:26.006Z,2.30
2022-10-19T17:01:53.967Z,2.50
2022-10-19T17:04:22.086Z,3.47
2022-10-19T17:06:50.061Z,3.73
2022-10-19T17:12:06.515Z,3.73
2022-10-19T17:14:36.481Z,3.20
2022-10-19T17:17:04.370Z,7.70
2022-10-19T17:19:32.277Z,12.73
2022-10-19T17:22:01.864Z,11.53
2022-10-19T17:24:30.617Z,11.27
2022-10-19T17:26:58.496Z,7.13
2022-10-19T17:29:26.302Z,4.70
2022-10-19T17:31:55.538Z,3.90
2022-10-19T17:34:23.351Z,8.33
2022-10-19T17:36:51.186Z,3.40
2022-10-19T17:39:25.780Z,5.37
2022-10-19T17:42:01.241Z,4.60
2022-10-19T17:44:30.498Z,6.37
2022-10-19T17:47:00.615Z,5.20
2022-10-19T17:49:29.790Z,2.97
2022-10-19T17:51:57.573Z,4.97
2022-10-19T17:54:25.521Z,5.10
2022-10-19T17:56:53.358Z,7.10
2022-10-19T17:59:30.160Z,3.47
2022-10-19T18:02:00.009Z,4.43
2022-10-19T18:04:27.832Z,4.57
2022-10-19T18:06:55.771Z,6.57
2022-10-19T18:09:23.528Z,5.10
2022-10-19T18:11:51.228Z,4.00
2022-10-19T18:14:18.987Z,4.90
2022-10-19T18:16:48.805Z,4.63
2022-10-19T18:19:18.249Z,3.53
2022-10-19T18:21:49.161Z,6.07
2022-10-19T18:24:20.022Z,8.67
2022-10-19T18:26:49.000Z,11.63
2022-10-19T18:29:18.961Z,9.67
2022-10-19T18:31:51.234Z,9.37
2022-10-19T18:34:22.208Z,4.83
2022-10-19T18:36:50.563Z,3.60
2022-10-19T18:39:19.078Z,6.43
2022-10-19T18:41:48.271Z,3.83
2022-10-19T18:44:16.017Z,3.60
2022-10-19T18:46:44.535Z,5.37
2022-10-19T18:49:12.914Z,5.27
2022-10-19T18:51:42.071Z,3.70
2022-10-19T18:54:10.122Z,3.57
2022-10-19T18:56:38.022Z,4.50
2022-10-19T18:59:06.318Z,7.67
2022-10-19T19:01:34.264Z,4.27
2022-10-19T19:04:07.673Z,6.10
2022-10-19T19:06:36.881Z,7.20
2022-10-19T19:09:09.388Z,5.90
2022-10-19T19:11:40.766Z,6.03
2022-10-19T19:14:13.559Z,6.83
2022-10-19T19:16:43.570Z,7.77
2022-10-19T19:19:13.410Z,4.87
2022-10-19T19:21:43.985Z,6.07
2022-10-19T19:24:16.194Z,4.73
2022-10-19T19:26:48.327Z,7.83
2022-10-19T19:29:16.783Z,7.57
2022-10-19T19:31:45.146Z,4.80
2022-10-19T19:34:13.009Z,4.87
2022-10-19T19:36:47.007Z,7.27
2022-10-19T19:39:18.856Z,7.37
2022-10-19T19:41:47.684Z,5.30
2022-10-19T19:44:15.713Z,6.10
2022-10-19T19:46:43.748Z,5.70
2022-10-19T19:49:11.895Z,3.80
2022-10-19T19:51:39.815Z,5.43
2022-10-19T19:54:07.574Z,8.23
2022-10-19T19:56:37.446Z,6.80
2022-10-19T19:59:05.344Z,9.00
2022-10-19T20:01:33.508Z,6.93
2022-10-19T20:06:36.800Z,4.03
2022-10-19T20:09:05.938Z,3.83
2022-10-19T20:11:36.170Z,4.83
2022-10-19T20:14:08.960Z,5.27
2022-10-19T20:16:37.061Z,4.17
2022-10-19T20:19:08.791Z,4.47
2022-10-19T20:21:36.500Z,5.73
2022-10-19T20:24:05.042Z,6.10
2022-10-19T20:26:33.045Z,8.10
2022-10-19T20:29:02.499Z,10.07
2022-10-19T20:31:33.413Z,7.47
2022-10-19T20:34:01.496Z,14.27
2022-10-19T20:36:29.199Z,12.40
2022-10-19T20:38:58.751Z,23.07
2022-10-19T20:41:28.949Z,19.33
2022-10-19T20:43:57.675Z,17.37
2022-10-19T20:46:27.320Z,19.00
2022-10-19T20:48:57.914Z,24.07
2022-10-19T20:51:30.853Z,29.33
2022-10-19T20:54:02.024Z,31.23
2022-10-19T20:56:32.002Z,24.03
2022-10-19T21:01:36.313Z,17.97
2022-10-19T21:04:07.022Z,18.90
2022-10-19T21:06:38.127Z,16.00
2022-10-19T21:09:06.403Z,18.27
2022-10-19T21:11:36.708Z,15.60
2022-10-19T21:14:06.200Z,10.00
2022-10-19T21:16:35.274Z,11.67
2022-10-19T21:19:05.666Z,8.07
2022-10-19T21:21:35.216Z,8.40
2022-10-19T21:24:05.375Z,5.10
2022-10-19T21:26:34.830Z,4.33
2022-10-19T21:29:03.612Z,4.47
2022-10-19T21:31:32.018Z,3.80
2022-10-19T21:33:59.810Z,4.80
2022-10-19T21:36:28.930Z,3.70
2022-10-19T21:38:57.304Z,5.17
2022-10-19T21:41:26.424Z,3.90
2022-10-19T21:43:54.869Z,2.50
2022-10-19T21:46:23.807Z,2.70
2022-10-19T21:48:52.150Z,3.50
2022-10-19T21:51:24.777Z,3.83
2022-10-19T21:53:54.766Z,3.47
2022-10-19T21:56:22.546Z,3.60
2022-10-19T21:58:52.294Z,5.40
2022-10-19T22:01:22.678Z,3.93
2022-10-19T22:03:50.489Z,4.63
2022-10-19T22:06:18.319Z,5.37
2022-10-19T22:08:48.995Z,8.03
2022-10-19T22:11:18.078Z,8.20
2022-10-19T22:13:45.750Z,9.63
2022-10-19T22:16:15.867Z,7.87
2022-10-19T22:18:44.145Z,5.97
2022-10-19T22:21:14.285Z,2.93
2022-10-19T22:23:42.932Z,3.20
2022-10-19T22:26:15.569Z,3.03
2022-10-19T22:28:45.275Z,2.40
2022-10-19T22:31:14.146Z,3.83
2022-10-19T22:33:41.898Z,3.47
2022-10-19T22:36:13.042Z,3.23
2022-10-19T22:38:41.868Z,3.07
2022-10-19T22:41:09.856Z,4.27
2022-10-19T22:43:37.712Z,4.00
2022-10-19T22:46:06.736Z,4.13
2022-10-19T22:48:34.782Z,7.10
2022-10-19T22:51:02.574Z,4.53
2022-10-19T22:53:30.285Z,3.20
2022-10-19T22:55:58.062Z,3.00
2022-10-19T22:58:25.808Z,6.07
2022-10-19T23:01:01.721Z,4.13
2022-10-19T23:03:30.860Z,6.13
2022-10-19T23:05:58.653Z,3.70
2022-10-19T23:08:26.836Z,5.60
2022-10-19T23:10:54.677Z,4.60
2022-10-19T23:13:22.710Z,4.77
2022-10-19T23:15:50.766Z,3.87
2022-10-19T23:18:19.344Z,3.30
2022-10-19T23:20:55.552Z,3.77
2022-10-19T23:23:23.747Z,4.83
2022-10-19T23:25:59.370Z,4.37
2022-10-19T23:28:27.117Z,4.83
2022-10-19T23:30:56.155Z,3.90
2022-10-19T23:33:23.910Z,4.77
2022-10-19T23:35:51.601Z,7.17
2022-10-19T23:38:20.669Z,5.23
2022-10-19T23:40:48.323Z,8.27
2022-10-19T23:43:15.936Z,5.10
2022-10-19T23:45:46.208Z,4.67
2022-10-19T23:48:13.888Z,6.10
2022-10-19T23:50:41.640Z,6.13
2022-10-19T23:53:09.381Z,5.23
2022-10-19T23:55:38.709Z,6.37
2022-10-19T23:58:06.497Z,5.67
